Time,TemperatureF,DewpointF,PressureIn,WindDirection,WindDirectionDegrees,WindSpeedMPH,WindSpeedGustMPH,Humidity,HourlyPrecipIn,Conditions,Clouds,dailyrainin,SolarRadiationWatts/m^2,SoftwareType,DateUTC
2013-05-04 00:01:00,49.4,43.5,30.34,NNE,28,0.0,0.0,80,0.00,,,0.00,0,Wunderground v.1.15,2013-05-04 04:01:00,
2013-05-04 00:05:00,49.2,43.3,30.34,NNE,27,0.0,0.0,80,0.00,,,0.00,0,Wunderground v.1.15,2013-05-04 04:05:00,
2013-05-04 00:07:00,49.1,43.2,30.34,NNE,27,0.0,0.0,80,0.00,,,0.00,0,Wunderground v.1.15,2013-05-04 04:07:00,
2013-05-04 00:13:00,48.9,43.0,30.34,NNE,27,0.0,0.0,80,0.00,,,0.00,0,Wunderground v.1.15,2013-05-04 04:13:00,
2013-05-04 00:16:00,48.9,43.3,30.34,NNE,27,0.0,0.0,81,0.00,,,0.00,0,Wunderground v.1.15,2013-05-04 04:16:00,
2013-05-04 00:23:00,48.8,43.2,30.34,NNE,27,0.0,0.0,81,0.00,,,0.00,0,Wunderground v.1.15,2013-05-04 04:23:00,
2013-05-04 00:31:00,48.6,43.4,30.34,NNE,27,0.0,0.0,82,0.00,,,0.00,0,Wunderground v.1.15,2013-05-04 04:31:00,
2013-05-04 00:37:00,48.5,43.3,30.34,NNE,27,0.0,0.0,82,0.00,,,0.00,0,Wunderground v.1.15,2013-05-04 04:37:00,
2013-05-04 00:43:00,48.3,43.4,30.34,North,360,0.0,0.0,83,0.00,,,0.00,0,Wunderground v.1.15,2013-05-04 04:43:00,
2013-05-04 00:48:00,48.3,43.4,30.33,NNE,27,0.0,0.0,83,0.00,,,0.00,0,Wunderground v.1.15,2013-05-04 04:48:00,
2013-05-04 00:54:00,48.2,43.3,30.33,NNE,27,0.0,0.0,83,0.00,,,0.00,0,Wunderground v.1.15,2013-05-04 04:54:00,
2013-05-04 01:00:00,48.0,43.4,30.33,NNE,27,0.0,0.0,84,0.00,,,0.00,0,Wunderground v.1.15,2013-05-04 05:00:00,
2013-05-04 01:06:00,47.9,43.3,30.33,NNE,27,0.0,0.0,84,0.00,,,0.00,0,Wunderground v.1.15,2013-05-04 05:06:00,
2013-05-04 01:12:00,47.7,43.4,30.33,NNE,27,0.0,0.0,85,0.00,,,0.00,0,Wunderground v.1.15,2013-05-04 05:12:00,
2013-05-04 01:17:00,47.7,43.4,30.33,NNE,27,0.0,0.0,85,0.00,,,0.00,0,Wunderground v.1.15,2013-05-04 05:17:00,
2013-05-04 01:24:00,47.6,43.3,30.33,North,360,0.0,0.0,85,0.00,,,0.00,0,Wunderground v.1.15,2013-05-04 05:24:00,
2013-05-04 01:29:00,47.4,43.1,30.33,North,360,0.0,0.0,85,0.00,,,0.00,0,Wunderground v.1.15,2013-05-04 05:29:00,
2013-05-04 01:35:00,47.4,43.4,30.32,North,360,0.0,0.0,86,0.00,,,0.00,0,Wunderground v.1.15,2013-05-04 05:35:00,
2013-05-04 01:41:00,47.3,43.3,30.32,NNE,27,0.0,0.0,86,0.00,,,0.00,0,Wunderground v.1.15,2013-05-04 05:41:00,
2013-05-04 01:47:00,47.1,43.1,30.32,North,360,0.0,0.0,86,0.00,,,0.00,0,Wunderground v.1.15,2013-05-04 05:47:00,
2013-05-04 01:54:00,47.0,43.0,30.32,NNE,27,0.0,0.0,86,0.00,,,0.00,0,Wunderground v.1.15,2013-05-04 05:54:00,
2013-05-04 02:01:00,46.8,43.1,30.31,NNE,27,0.0,0.0,87,0.00,,,0.00,0,Wunderground v.1.15,2013-05-04 06:01:00,
2013-05-04 02:07:00,46.7,43.0,30.31,NNE,27,0.0,0.0,87,0.00,,,0.00,0,Wunderground v.1.15,2013-05-04 06:07:00,
2013-05-04 02:14:00,46.5,42.8,30.31,NNE,27,0.0,0.0,87,0.00,,,0.00,0,Wunderground v.1.15,2013-05-04 06:14:00,
2013-05-04 02:19:00,46.4,42.7,30.31,NNE,27,0.0,0.0,87,0.00,,,0.00,0,Wunderground v.1.15,2013-05-04 06:19:00,
2013-05-04 02:25:00,46.2,42.5,30.31,NNE,27,0.0,0.0,87,0.00,,,0.00,0,Wunderground v.1.15,2013-05-04 06:25:00,
2013-05-04 02:31:00,46.1,42.7,30.30,NNE,27,0.0,0.0,88,0.00,,,0.00,0,Wunderground v.1.15,2013-05-04 06:31:00,
2013-05-04 02:37:00,46.0,42.6,30.30,NNE,27,0.0,0.0,88,0.00,,,0.00,0,Wunderground v.1.15,2013-05-04 06:37:00,
2013-05-04 02:43:00,45.8,42.4,30.30,NNE,27,0.0,0.0,88,0.00,,,0.00,0,Wunderground v.1.15,2013-05-04 06:43:00,
2013-05-04 02:51:00,45.5,42.2,30.29,NNE,27,0.0,0.0,88,0.00,,,0.00,0,Wunderground v.1.15,2013-05-04 06:51:00,
2013-05-04 02:57:00,45.5,42.2,30.29,NNE,26,0.0,0.0,88,0.00,,,0.00,0,Wunderground v.1.15,2013-05-04 06:57:00,
2013-05-04 03:03:00,45.5,42.4,30.29,North,360,1.0,3.0,89,0.00,,,0.00,0,Wunderground v.1.15,2013-05-04 07:03:00,
2013-05-04 03:08:00,45.5,42.4,30.29,North,360,1.0,2.0,89,0.00,,,0.00,0,Wunderground v.1.15,2013-05-04 07:08:00,
2013-05-04 03:14:00,45.7,42.6,30.29,North,360,2.0,2.0,89,0.00,,,0.00,0,Wunderground v.1.15,2013-05-04 07:14:00,
2013-05-04 03:21:00,45.7,42.6,30.28,North,360,1.0,2.0,89,0.00,,,0.00,0,Wunderground v.1.15,2013-05-04 07:21:00,
2013-05-04 03:27:00,45.7,42.9,30.28,North,360,1.0,2.0,90,0.00,,,0.00,0,Wunderground v.1.15,2013-05-04 07:27:00,
2013-05-04 03:35:00,45.7,42.9,30.28,North,360,0.0,1.0,90,0.00,,,0.00,0,Wunderground v.1.15,2013-05-04 07:35:00,
2013-05-04 03:41:00,45.7,42.9,30.28,North,360,0.0,1.0,90,0.00,,,0.00,0,Wunderground v.1.15,2013-05-04 07:41:00,
2013-05-04 03:47:00,45.7,42.6,30.27,North,360,0.0,0.0,89,0.00,,,0.00,0,Wunderground v.1.15,2013-05-04 07:47:00,
2013-05-04 03:56:00,45.5,42.7,30.27,North,360,0.0,0.0,90,0.00,,,0.00,0,Wunderground v.1.15,2013-05-04 07:56:00,
2013-05-04 04:02:00,45.4,42.6,30.27,North,360,0.0,0.0,90,0.00,,,0.00,0,Wunderground v.1.15,2013-05-04 08:02:00,
2013-05-04 04:10:00,45.2,42.4,30.27,North,360,0.0,0.0,90,0.00,,,0.00,0,Wunderground v.1.15,2013-05-04 08:10:00,
2013-05-04 04:18:00,45.1,42.3,30.27,North,360,0.0,0.0,90,0.00,,,0.00,0,Wunderground v.1.15,2013-05-04 08:18:00,
2013-05-04 04:28:00,44.9,42.1,30.27,North,360,0.0,0.0,90,0.00,,,0.00,0,Wunderground v.1.15,2013-05-04 08:28:00,
2013-05-04 04:36:00,44.6,41.8,30.27,North,360,0.0,0.0,90,0.00,,,0.00,0,Wunderground v.1.15,2013-05-04 08:36:00,
2013-05-04 04:46:00,44.5,41.7,30.27,North,360,1.0,1.0,90,0.00,,,0.00,0,Wunderground v.1.15,2013-05-04 08:46:00,
2013-05-04 04:57:00,44.3,41.6,30.27,North,360,1.0,1.0,90,0.00,,,0.00,0,Wunderground v.1.15,2013-05-04 08:57:00,
2013-05-04 05:07:00,44.2,41.7,30.27,North,360,0.0,1.0,91,0.00,,,0.00,0,Wunderground v.1.15,2013-05-04 09:07:00,
2013-05-04 05:17:00,44.1,41.6,30.27,North,360,0.0,0.0,91,0.00,,,0.00,0,Wunderground v.1.15,2013-05-04 09:17:00,
2013-05-04 05:29:00,43.9,41.4,30.27,North,360,0.0,0.0,91,0.00,,,0.00,0,Wunderground v.1.15,2013-05-04 09:29:00,
2013-05-04 05:41:00,43.8,41.6,30.27,North,360,0.0,0.0,92,0.00,,,0.00,0,Wunderground v.1.15,2013-05-04 09:41:00,
2013-05-04 05:47:00,43.8,41.6,30.27,North,360,0.0,0.0,92,0.00,,,0.00,0,Wunderground v.1.15,2013-05-04 09:47:00,
2013-05-04 05:57:00,43.6,41.4,30.27,North,360,0.0,0.0,92,0.00,,,0.00,7,Wunderground v.1.15,2013-05-04 09:57:00,
2013-05-04 06:08:00,43.5,41.3,30.27,North,360,0.0,0.0,92,0.00,,,0.00,16,Wunderground v.1.15,2013-05-04 10:08:00,
2013-05-04 06:16:00,43.5,41.6,30.27,North,360,0.0,0.0,93,0.00,,,0.00,33,Wunderground v.1.15,2013-05-04 10:16:00,
2013-05-04 06:28:00,43.8,41.9,30.27,North,360,0.0,0.0,93,0.00,,,0.00,62,Wunderground v.1.15,2013-05-04 10:28:00,
2013-05-04 06:33:00,43.9,42.0,30.28,North,360,0.0,0.0,93,0.00,,,0.00,74,Wunderground v.1.15,2013-05-04 10:33:00,
2013-05-04 06:47:00,44.8,43.2,30.28,North,360,0.0,0.0,94,0.00,,,0.00,107,Wunderground v.1.15,2013-05-04 10:47:00,
2013-05-04 06:55:00,45.1,43.2,30.28,North,360,1.0,1.0,93,0.00,,,0.00,125,Wunderground v.1.15,2013-05-04 10:55:00,
2013-05-04 07:01:00,45.4,43.5,30.28,North,360,1.0,1.0,93,0.00,,,0.00,139,Wunderground v.1.15,2013-05-04 11:01:00,
2013-05-04 07:07:00,45.7,43.8,30.28,North,360,1.0,1.0,93,0.00,,,0.00,149,Wunderground v.1.15,2013-05-04 11:07:00,
2013-05-04 07:15:00,46.2,44.3,30.28,North,360,1.0,2.0,93,0.00,,,0.00,172,Wunderground v.1.15,2013-05-04 11:15:00,
2013-05-04 07:21:00,46.7,44.5,30.28,North,360,0.0,2.0,92,0.00,,,0.00,192,Wunderground v.1.15,2013-05-04 11:21:00,
2013-05-04 07:27:00,47.3,45.1,30.28,North,360,1.0,3.0,92,0.00,,,0.00,207,Wunderground v.1.15,2013-05-04 11:27:00,
2013-05-04 07:35:00,48.2,45.7,30.28,North,360,1.0,3.0,91,0.00,,,0.00,227,Wunderground v.1.15,2013-05-04 11:35:00,
2013-05-04 07:41:00,48.9,45.8,30.28,North,360,1.0,1.0,89,0.00,,,0.00,243,Wunderground v.1.15,2013-05-04 11:41:00,
2013-05-04 07:48:00,49.8,46.4,30.28,North,360,0.0,1.0,88,0.00,,,0.00,267,Wunderground v.1.15,2013-05-04 11:48:00,
2013-05-04 07:57:00,50.5,46.2,30.28,North,360,1.0,3.0,85,0.00,,,0.00,292,Wunderground v.1.15,2013-05-04 11:57:00,
2013-05-04 08:06:00,51.4,45.8,30.28,North,360,2.0,3.0,81,0.00,,,0.00,315,Wunderground v.1.15,2013-05-04 12:06:00,
2013-05-04 08:12:00,52.3,46.0,30.28,North,360,1.0,1.0,79,0.00,,,0.00,332,Wunderground v.1.15,2013-05-04 12:12:00,
2013-05-04 08:17:00,53.2,45.8,30.28,North,360,1.0,2.0,76,0.00,,,0.00,353,Wunderground v.1.15,2013-05-04 12:17:00,
2013-05-04 08:25:00,54.4,45.2,30.28,North,360,2.0,2.0,71,0.00,,,0.00,371,Wunderground v.1.15,2013-05-04 12:25:00,
2013-05-04 08:31:00,55.1,44.7,30.28,North,360,2.0,2.0,68,0.00,,,0.00,387,Wunderground v.1.15,2013-05-04 12:31:00,
2013-05-04 08:37:00,55.9,44.3,30.28,North,360,2.0,4.0,65,0.00,,,0.00,404,Wunderground v.1.15,2013-05-04 12:37:00,
2013-05-04 08:45:00,56.9,43.6,30.28,North,360,3.0,4.0,61,0.00,,,0.00,427,Wunderground v.1.15,2013-05-04 12:45:00,
2013-05-04 08:51:00,57.3,43.1,30.28,North,360,3.0,3.0,59,0.00,,,0.00,441,Wunderground v.1.15,2013-05-04 12:51:00,
2013-05-04 08:57:00,58.0,42.8,30.28,NNE,17,3.0,3.0,57,0.00,,,0.00,462,Wunderground v.1.15,2013-05-04 12:57:00,
2013-05-04 09:07:00,58.6,42.0,30.28,North,9,3.0,5.0,54,0.00,,,0.00,487,Wunderground v.1.15,2013-05-04 13:07:00,
2013-05-04 09:14:00,58.9,41.3,30.28,North,360,3.0,5.0,52,0.00,,,0.00,504,Wunderground v.1.15,2013-05-04 13:14:00,
2013-05-04 09:19:00,59.2,41.1,30.27,North,360,4.0,5.0,51,0.00,,,0.00,517,Wunderground v.1.15,2013-05-04 13:19:00,
2013-05-04 09:25:00,59.5,40.8,30.27,North,360,4.0,5.0,50,0.00,,,0.00,534,Wunderground v.1.15,2013-05-04 13:25:00,
2013-05-04 09:31:00,59.6,40.4,30.27,North,360,4.0,4.0,49,0.00,,,0.00,548,Wunderground v.1.15,2013-05-04 13:31:00,
2013-05-04 09:37:00,60.2,41.0,30.27,North,360,3.0,4.0,49,0.00,,,0.00,563,Wunderground v.1.15,2013-05-04 13:37:00,
2013-05-04 09:45:00,61.0,40.6,30.27,North,10,3.0,4.0,47,0.00,,,0.00,580,Wunderground v.1.15,2013-05-04 13:45:00,
2013-05-04 09:51:00,61.5,40.5,30.27,North,360,3.0,4.0,46,0.00,,,0.00,594,Wunderground v.1.15,2013-05-04 13:51:00,
2013-05-04 09:57:00,62.4,40.8,30.27,North,11,2.0,3.0,45,0.00,,,0.00,608,Wunderground v.1.15,2013-05-04 13:57:00,
2013-05-04 10:03:00,62.7,39.3,30.27,North,360,2.0,5.0,42,0.00,,,0.00,626,Wunderground v.1.15,2013-05-04 14:03:00,
2013-05-04 10:08:00,63.1,40.2,30.27,North,360,2.0,2.0,43,0.00,,,0.00,638,Wunderground v.1.15,2013-05-04 14:08:00,
2013-05-04 10:14:00,63.4,38.0,30.27,NNE,15,2.0,3.0,39,0.00,,,0.00,650,Wunderground v.1.15,2013-05-04 14:14:00,
2013-05-04 10:20:00,63.9,39.7,30.27,North,360,2.0,2.0,41,0.00,,,0.00,661,Wunderground v.1.15,2013-05-04 14:20:00,
2013-05-04 10:27:00,64.5,39.0,30.27,North,360,2.0,2.0,39,0.00,,,0.00,677,Wunderground v.1.15,2013-05-04 14:27:00,
2013-05-04 10:33:00,65.2,37.6,30.27,NNE,21,2.0,2.0,36,0.00,,,0.00,689,Wunderground v.1.15,2013-05-04 14:33:00,
2013-05-04 10:40:00,65.2,37.6,30.27,North,11,2.0,2.0,36,0.00,,,0.00,701,Wunderground v.1.15,2013-05-04 14:40:00,
2013-05-04 10:46:00,65.3,36.9,30.27,NNE,14,2.0,4.0,35,0.00,,,0.00,712,Wunderground v.1.15,2013-05-04 14:46:00,
2013-05-04 10:53:00,65.5,37.8,30.27,North,360,3.0,3.0,36,0.00,,,0.00,722,Wunderground v.1.15,2013-05-04 14:53:00,
2013-05-04 10:59:00,65.0,35.9,30.27,North,360,4.0,4.0,34,0.00,,,0.00,733,Wunderground v.1.15,2013-05-04 14:59:00,
2013-05-04 11:06:00,64.7,37.1,30.27,NNE,23,4.0,4.0,36,0.00,,,0.00,744,Wunderground v.1.15,2013-05-04 15:06:00,
2013-05-04 11:12:00,65.2,37.6,30.27,North,11,3.0,3.0,36,0.00,,,0.00,751,Wunderground v.1.15,2013-05-04 15:12:00,
2013-05-04 11:18:00,65.2,36.8,30.26,NNE,24,3.0,4.0,35,0.00,,,0.00,758,Wunderground v.1.15,2013-05-04 15:18:00,
2013-05-04 11:24:00,65.5,37.1,30.26,NNE,23,3.0,4.0,35,0.00,,,0.00,766,Wunderground v.1.15,2013-05-04 15:24:00,
2013-05-04 11:31:00,66.1,37.6,30.26,North,11,3.0,3.0,35,0.00,,,0.00,779,Wunderground v.1.15,2013-05-04 15:31:00,
2013-05-04 11:37:00,65.8,38.1,30.26,NNE,23,4.0,4.0,36,0.00,,,0.00,786,Wunderground v.1.15,2013-05-04 15:37:00,
2013-05-04 11:44:00,65.6,37.2,30.26,NNE,17,3.0,4.0,35,0.00,,,0.00,791,Wunderground v.1.15,2013-05-04 15:44:00,
2013-05-04 11:51:00,65.5,37.1,30.26,NNE,22,4.0,6.0,35,0.00,,,0.00,796,Wunderground v.1.15,2013-05-04 15:51:00,
2013-05-04 11:57:00,65.6,37.2,30.26,North,360,4.0,6.0,35,0.00,,,0.00,803,Wunderground v.1.15,2013-05-04 15:57:00,
2013-05-04 12:05:00,65.6,37.2,30.25,NNE,16,4.0,8.0,35,0.00,,,0.00,809,Wunderground v.1.15,2013-05-04 16:05:00,
2013-05-04 12:11:00,65.8,37.4,30.25,NNE,21,3.0,3.0,35,0.00,,,0.00,810,Wunderground v.1.15,2013-05-04 16:11:00,
2013-05-04 12:17:00,66.0,39.0,30.25,North,360,3.0,6.0,37,0.00,,,0.00,817,Wunderground v.1.15,2013-05-04 16:17:00,
2013-05-04 12:25:00,66.4,37.2,30.25,NNE,13,3.0,9.0,34,0.00,,,0.00,821,Wunderground v.1.15,2013-05-04 16:25:00,
2013-05-04 12:31:00,66.3,35.5,30.25,NNE,12,4.0,4.0,32,0.00,,,0.00,826,Wunderground v.1.15,2013-05-04 16:31:00,
2013-05-04 12:37:00,66.4,36.4,30.25,North,11,3.0,5.0,33,0.00,,,0.00,828,Wunderground v.1.15,2013-05-04 16:37:00,
2013-05-04 12:44:00,66.9,35.3,30.25,North,360,3.0,4.0,31,0.00,,,0.00,828,Wunderground v.1.15,2013-05-04 16:44:00,
2013-05-04 12:49:00,67.1,35.4,30.24,North,360,2.0,8.0,31,0.00,,,0.00,831,Wunderground v.1.15,2013-05-04 16:49:00,
2013-05-04 12:55:00,67.8,36.0,30.24,North,360,3.0,8.0,31,0.00,,,0.00,833,Wunderground v.1.15,2013-05-04 16:55:00,
2013-05-04 13:01:00,67.3,36.4,30.24,NNE,17,4.0,8.0,32,0.00,,,0.00,830,Wunderground v.1.15,2013-05-04 17:01:00,
2013-05-04 13:07:00,67.8,38.4,30.24,NNE,22,3.0,8.0,34,0.00,,,0.00,824,Wunderground v.1.15,2013-05-04 17:07:00,
2013-05-04 13:13:00,68.1,35.5,30.24,North,360,3.0,4.0,30,0.00,,,0.00,826,Wunderground v.1.15,2013-05-04 17:13:00,
2013-05-04 13:18:00,67.8,34.4,30.24,North,11,4.0,4.0,29,0.00,,,0.00,826,Wunderground v.1.15,2013-05-04 17:18:00,
2013-05-04 13:24:00,68.3,37.3,30.24,NNE,22,3.0,4.0,32,0.00,,,0.00,824,Wunderground v.1.15,2013-05-04 17:24:00,
2013-05-04 13:30:00,69.1,37.2,30.24,North,360,2.0,2.0,31,0.00,,,0.00,821,Wunderground v.1.15,2013-05-04 17:30:00,
2013-05-04 13:36:00,68.3,35.6,30.24,NNE,20,3.0,3.0,30,0.00,,,0.00,816,Wunderground v.1.15,2013-05-04 17:36:00,
2013-05-04 13:44:00,68.9,35.3,30.24,North,360,3.0,4.0,29,0.00,,,0.00,809,Wunderground v.1.15,2013-05-04 17:44:00,
2013-05-04 13:50:00,69.8,37.8,30.23,NNE,18,3.0,3.0,31,0.00,,,0.00,805,Wunderground v.1.15,2013-05-04 17:50:00,
2013-05-04 13:55:00,69.6,36.8,30.23,North,360,2.0,10.0,30,0.00,,,0.00,802,Wunderground v.1.15,2013-05-04 17:55:00,
2013-05-04 14:01:00,69.4,37.4,30.22,NNE,15,4.0,8.0,31,0.00,,,0.00,793,Wunderground v.1.15,2013-05-04 18:01:00,
2013-05-04 14:07:00,68.9,36.2,30.22,NNE,16,3.0,8.0,30,0.00,,,0.00,786,Wunderground v.1.15,2013-05-04 18:07:00,
2013-05-04 14:14:00,69.8,35.2,30.22,North,360,3.0,5.0,28,0.00,,,0.00,782,Wunderground v.1.15,2013-05-04 18:14:00,
2013-05-04 14:19:00,69.8,36.1,30.22,North,360,4.0,4.0,29,0.00,,,0.00,775,Wunderground v.1.15,2013-05-04 18:19:00,
2013-05-04 14:25:00,70.1,35.5,30.22,North,360,3.0,4.0,28,0.00,,,0.00,766,Wunderground v.1.15,2013-05-04 18:25:00,
2013-05-04 14:31:00,70.6,36.8,30.21,NNE,15,3.0,7.0,29,0.00,,,0.00,759,Wunderground v.1.15,2013-05-04 18:31:00,
2013-05-04 14:37:00,70.3,36.5,30.21,North,360,4.0,9.0,29,0.00,,,0.00,751,Wunderground v.1.15,2013-05-04 18:37:00,
2013-05-04 14:44:00,69.8,39.4,30.21,NNE,23,5.0,5.0,33,0.00,,,0.00,735,Wunderground v.1.15,2013-05-04 18:44:00,
2013-05-04 14:51:00,69.6,42.9,30.21,NNE,22,3.0,4.0,38,0.00,,,0.00,724,Wunderground v.1.15,2013-05-04 18:51:00,
2013-05-04 14:57:00,68.6,41.3,30.21,NNE,22,4.0,6.0,37,0.00,,,0.00,719,Wunderground v.1.15,2013-05-04 18:57:00,
2013-05-04 15:04:00,67.9,40.7,30.21,NNE,26,4.0,5.0,37,0.00,,,0.00,701,Wunderground v.1.15,2013-05-04 19:04:00,
2013-05-04 15:09:00,68.1,40.8,30.21,NNE,28,3.0,6.0,37,0.00,,,0.00,693,Wunderground v.1.15,2013-05-04 19:09:00,
2013-05-04 15:15:00,67.8,40.6,30.21,North,360,4.0,5.0,37,0.00,,,0.00,684,Wunderground v.1.15,2013-05-04 19:15:00,
2013-05-04 15:21:00,67.3,42.1,30.21,NNE,19,4.0,6.0,40,0.00,,,0.00,675,Wunderground v.1.15,2013-05-04 19:21:00,
2013-05-04 15:27:00,67.6,42.4,30.21,NNE,24,3.0,7.0,40,0.00,,,0.00,661,Wunderground v.1.15,2013-05-04 19:27:00,
2013-05-04 15:34:00,66.6,40.9,30.21,North,360,3.0,4.0,39,0.00,,,0.00,645,Wunderground v.1.15,2013-05-04 19:34:00,
2013-05-04 15:39:00,66.6,41.5,30.21,North,360,3.0,4.0,40,0.00,,,0.00,636,Wunderground v.1.15,2013-05-04 19:39:00,
2013-05-04 15:45:00,65.2,41.5,30.21,NNE,28,5.0,5.0,42,0.00,,,0.00,624,Wunderground v.1.15,2013-05-04 19:45:00,
2013-05-04 15:51:00,65.3,41.0,30.21,North,360,5.0,5.0,41,0.00,,,0.00,606,Wunderground v.1.15,2013-05-04 19:51:00,
2013-05-04 15:57:00,65.3,41.6,30.21,NNE,26,4.0,5.0,42,0.00,,,0.00,596,Wunderground v.1.15,2013-05-04 19:57:00,
2013-05-04 16:05:00,64.8,41.8,30.21,NNE,23,5.0,10.0,43,0.00,,,0.00,575,Wunderground v.1.15,2013-05-04 20:05:00,
2013-05-04 16:10:00,65.6,40.0,30.21,NNE,26,5.0,6.0,39,0.00,,,0.00,564,Wunderground v.1.15,2013-05-04 20:10:00,
2013-05-04 16:16:00,65.6,40.6,30.20,NNE,26,4.0,6.0,40,0.00,,,0.00,550,Wunderground v.1.15,2013-05-04 20:16:00,
2013-05-04 16:23:00,65.5,40.5,30.20,NNE,26,4.0,7.0,40,0.00,,,0.00,533,Wunderground v.1.15,2013-05-04 20:23:00,
2013-05-04 16:28:00,65.3,41.0,30.20,North,360,4.0,7.0,41,0.00,,,0.00,520,Wunderground v.1.15,2013-05-04 20:28:00,
2013-05-04 16:34:00,64.5,40.3,30.21,NNE,22,4.0,5.0,41,0.00,,,0.00,504,Wunderground v.1.15,2013-05-04 20:34:00,
2013-05-04 16:40:00,64.5,40.9,30.21,North,360,4.0,4.0,42,0.00,,,0.00,487,Wunderground v.1.15,2013-05-04 20:40:00,
2013-05-04 16:46:00,64.3,40.7,30.20,NNE,17,4.0,6.0,42,0.00,,,0.00,471,Wunderground v.1.15,2013-05-04 20:46:00,
2013-05-04 16:53:00,64.3,40.1,30.20,NNE,25,4.0,4.0,41,0.00,,,0.00,457,Wunderground v.1.15,2013-05-04 20:53:00,
2013-05-04 17:02:00,63.4,39.9,30.21,NNE,22,4.0,4.0,42,0.00,,,0.00,431,Wunderground v.1.15,2013-05-04 21:02:00,
2013-05-04 17:08:00,63.2,40.3,30.21,NNE,25,4.0,6.0,43,0.00,,,0.00,413,Wunderground v.1.15,2013-05-04 21:08:00,
2013-05-04 17:14:00,62.4,40.2,30.21,NNE,19,4.0,4.0,44,0.00,,,0.00,397,Wunderground v.1.15,2013-05-04 21:14:00,
2013-05-04 17:19:00,62.0,40.4,30.21,NNE,22,3.0,4.0,45,0.00,,,0.00,383,Wunderground v.1.15,2013-05-04 21:19:00,
2013-05-04 17:25:00,62.1,41.1,30.21,North,360,3.0,4.0,46,0.00,,,0.00,364,Wunderground v.1.15,2013-05-04 21:25:00,
2013-05-04 17:31:00,61.5,41.1,30.21,NNE,21,4.0,4.0,47,0.00,,,0.00,348,Wunderground v.1.15,2013-05-04 21:31:00,
2013-05-04 17:37:00,61.0,41.2,30.21,NNE,17,4.0,9.0,48,0.00,,,0.00,330,Wunderground v.1.15,2013-05-04 21:37:00,
2013-05-04 17:44:00,60.5,41.2,30.21,NNE,20,4.0,5.0,49,0.00,,,0.00,309,Wunderground v.1.15,2013-05-04 21:44:00,
2013-05-04 17:49:00,60.1,41.4,30.21,NNE,19,3.0,8.0,50,0.00,,,0.00,257,Wunderground v.1.15,2013-05-04 21:49:00,
2013-05-04 17:55:00,59.9,41.7,30.21,NNE,20,4.0,4.0,51,0.00,,,0.00,125,Wunderground v.1.15,2013-05-04 21:55:00,
2013-05-04 18:01:00,59.8,41.6,30.21,NNE,20,3.0,4.0,51,0.00,,,0.00,97,Wunderground v.1.15,2013-05-04 22:01:00,
2013-05-04 18:07:00,59.5,41.9,30.21,NNE,23,3.0,4.0,52,0.00,,,0.00,70,Wunderground v.1.15,2013-05-04 22:07:00,
2013-05-04 18:15:00,59.2,42.1,30.21,NNE,28,3.0,5.0,53,0.00,,,0.00,81,Wunderground v.1.15,2013-05-04 22:15:00,
2013-05-04 18:21:00,59.0,42.4,30.21,NNE,28,3.0,3.0,54,0.00,,,0.00,51,Wunderground v.1.15,2013-05-04 22:21:00,
2013-05-04 18:27:00,58.7,42.1,30.21,North,360,3.0,4.0,54,0.00,,,0.00,40,Wunderground v.1.15,2013-05-04 22:27:00,
2013-05-04 18:34:00,58.4,42.3,30.22,North,360,3.0,3.0,55,0.00,,,0.00,39,Wunderground v.1.15,2013-05-04 22:34:00,
2013-05-04 18:39:00,58.3,42.7,30.22,NNE,22,2.0,3.0,56,0.00,,,0.00,42,Wunderground v.1.15,2013-05-04 22:39:00,
2013-05-04 18:45:00,58.1,42.5,30.22,NNE,30,3.0,4.0,56,0.00,,,0.00,35,Wunderground v.1.15,2013-05-04 22:45:00,
2013-05-04 18:51:00,57.6,42.5,30.22,NNE,15,3.0,3.0,57,0.00,,,0.00,79,Wunderground v.1.15,2013-05-04 22:51:00,
2013-05-04 18:57:00,57.3,42.6,30.22,NNE,23,2.0,3.0,58,0.00,,,0.00,35,Wunderground v.1.15,2013-05-04 22:57:00,
2013-05-04 19:03:00,57.2,42.5,30.22,North,360,3.0,6.0,58,0.00,,,0.00,30,Wunderground v.1.15,2013-05-04 23:03:00,
2013-05-04 19:08:00,57.0,42.4,30.22,NNE,30,3.0,6.0,58,0.00,,,0.00,26,Wunderground v.1.15,2013-05-04 23:08:00,
2013-05-04 19:15:00,56.7,42.5,30.22,NNE,29,3.0,3.0,59,0.00,,,0.00,26,Wunderground v.1.15,2013-05-04 23:15:00,
2013-05-04 19:21:00,56.6,42.9,30.22,NNE,24,2.0,2.0,60,0.00,,,0.00,25,Wunderground v.1.15,2013-05-04 23:21:00,
2013-05-04 19:26:00,56.3,42.6,30.22,NNE,19,2.0,4.0,60,0.00,,,0.00,19,Wunderground v.1.15,2013-05-04 23:26:00,
2013-05-04 19:33:00,56.0,42.7,30.22,NNE,28,2.0,3.0,61,0.00,,,0.00,18,Wunderground v.1.15,2013-05-04 23:33:00,
2013-05-04 19:38:00,55.9,42.6,30.22,NNE,21,2.0,3.0,61,0.00,,,0.00,12,Wunderground v.1.15,2013-05-04 23:38:00,
2013-05-04 19:44:00,55.7,42.9,30.22,NNE,24,1.0,2.0,62,0.00,,,0.00,9,Wunderground v.1.15,2013-05-04 23:44:00,
2013-05-04 19:50:00,55.4,42.6,30.22,North,360,1.0,1.0,62,0.00,,,0.00,7,Wunderground v.1.15,2013-05-04 23:50:00,
2013-05-04 19:56:00,55.1,42.3,30.22,NNE,21,1.0,2.0,62,0.00,,,0.00,0,Wunderground v.1.15,2013-05-04 23:56:00,
2013-05-04 20:01:00,54.8,42.0,30.23,NNE,20,1.0,1.0,62,0.00,,,0.00,0,Wunderground v.1.15,2013-05-05 00:01:00,
2013-05-04 20:08:00,54.7,41.9,30.23,North,360,2.0,3.0,62,0.00,,,0.00,0,Wunderground v.1.15,2013-05-05 00:08:00,
2013-05-04 20:14:00,54.4,41.6,30.23,NNE,27,1.0,2.0,62,0.00,,,0.00,0,Wunderground v.1.15,2013-05-05 00:14:00,
2013-05-04 20:19:00,54.1,41.8,30.24,NNE,23,1.0,1.0,63,0.00,,,0.00,0,Wunderground v.1.15,2013-05-05 00:19:00,
2013-05-04 20:25:00,53.9,41.6,30.24,North,360,1.0,4.0,63,0.00,,,0.00,0,Wunderground v.1.15,2013-05-05 00:25:00,
2013-05-04 20:31:00,53.6,41.3,30.24,North,360,1.0,2.0,63,0.00,,,0.00,0,Wunderground v.1.15,2013-05-05 00:31:00,
2013-05-04 20:37:00,53.5,41.6,30.24,NNE,16,2.0,3.0,64,0.00,,,0.00,0,Wunderground v.1.15,2013-05-05 00:37:00,
2013-05-04 20:44:00,53.2,41.3,30.24,North,360,2.0,2.0,64,0.00,,,0.00,0,Wunderground v.1.15,2013-05-05 00:44:00,
2013-05-04 20:49:00,53.1,41.6,30.24,NNE,24,2.0,2.0,65,0.00,,,0.00,0,Wunderground v.1.15,2013-05-05 00:49:00,
2013-05-04 20:55:00,52.9,41.4,30.24,NNE,24,1.0,3.0,65,0.00,,,0.00,0,Wunderground v.1.15,2013-05-05 00:55:00,
2013-05-04 21:01:00,52.8,41.7,30.25,NNE,16,1.0,3.0,66,0.00,,,0.00,0,Wunderground v.1.15,2013-05-05 01:01:00,
2013-05-04 21:07:00,52.6,41.6,30.25,North,360,2.0,3.0,66,0.00,,,0.00,0,Wunderground v.1.15,2013-05-05 01:07:00,
2013-05-04 21:14:00,52.5,41.9,30.25,North,360,1.0,2.0,67,0.00,,,0.00,0,Wunderground v.1.15,2013-05-05 01:14:00,
2013-05-04 21:19:00,52.3,41.7,30.25,NNE,20,1.0,3.0,67,0.00,,,0.00,0,Wunderground v.1.15,2013-05-05 01:19:00,
2013-05-04 21:25:00,52.0,41.8,30.25,North,360,1.0,1.0,68,0.00,,,0.00,0,Wunderground v.1.15,2013-05-05 01:25:00,
2013-05-04 21:31:00,51.9,41.7,30.25,NNE,21,1.0,1.0,68,0.00,,,0.00,0,Wunderground v.1.15,2013-05-05 01:31:00,
2013-05-04 21:37:00,51.7,41.9,30.25,NNE,20,0.0,1.0,69,0.00,,,0.00,0,Wunderground v.1.15,2013-05-05 01:37:00,
2013-05-04 21:45:00,51.6,41.8,30.25,North,360,0.0,4.0,69,0.00,,,0.00,0,Wunderground v.1.15,2013-05-05 01:45:00,
2013-05-04 21:51:00,51.4,41.9,30.26,NNE,17,1.0,1.0,70,0.00,,,0.00,0,Wunderground v.1.15,2013-05-05 01:51:00,
2013-05-04 21:57:00,51.3,41.8,30.26,NNE,14,1.0,1.0,70,0.00,,,0.00,0,Wunderground v.1.15,2013-05-05 01:57:00,
2013-05-04 22:03:00,51.1,41.7,30.26,NNE,13,0.0,1.0,70,0.00,,,0.00,0,Wunderground v.1.15,2013-05-05 02:03:00,
2013-05-04 22:08:00,51.0,41.6,30.26,North,360,0.0,2.0,70,0.00,,,0.00,0,Wunderground v.1.15,2013-05-05 02:08:00,
2013-05-04 22:15:00,50.8,41.7,30.26,NNE,13,0.0,0.0,71,0.00,,,0.00,0,Wunderground v.1.15,2013-05-05 02:15:00,
2013-05-04 22:20:00,50.7,41.6,30.26,North,360,0.0,0.0,71,0.00,,,0.00,0,Wunderground v.1.15,2013-05-05 02:20:00,
2013-05-04 22:26:00,50.5,41.4,30.26,North,360,0.0,1.0,71,0.00,,,0.00,0,Wunderground v.1.15,2013-05-05 02:26:00,
2013-05-04 22:33:00,50.4,41.3,30.26,NNE,13,0.0,0.0,71,0.00,,,0.00,0,Wunderground v.1.15,2013-05-05 02:33:00,
2013-05-04 22:38:00,50.4,41.3,30.26,NNE,13,0.0,1.0,71,0.00,,,0.00,0,Wunderground v.1.15,2013-05-05 02:38:00,
2013-05-04 22:44:00,50.2,41.5,30.26,NNE,13,0.0,0.0,72,0.00,,,0.00,0,Wunderground v.1.15,2013-05-05 02:44:00,
2013-05-04 22:50:00,50.1,41.4,30.26,North,360,0.0,1.0,72,0.00,,,0.00,0,Wunderground v.1.15,2013-05-05 02:50:00,
2013-05-04 22:55:00,49.9,41.2,30.26,NNE,13,0.0,1.0,72,0.00,,,0.00,0,Wunderground v.1.15,2013-05-05 02:55:00,
2013-05-04 23:02:00,49.8,41.1,30.26,North,360,0.0,0.0,72,0.00,,,0.00,0,Wunderground v.1.15,2013-05-05 03:02:00,
2013-05-04 23:08:00,49.5,40.8,30.26,North,360,0.0,0.0,72,0.00,,,0.00,0,Wunderground v.1.15,2013-05-05 03:08:00,
2013-05-04 23:14:00,49.4,41.1,30.26,NNE,13,0.0,0.0,73,0.00,,,0.00,0,Wunderground v.1.15,2013-05-05 03:14:00,
2013-05-04 23:19:00,49.4,41.1,30.26,NNE,13,0.0,0.0,73,0.00,,,0.00,0,Wunderground v.1.15,2013-05-05 03:19:00,
2013-05-04 23:25:00,49.2,41.3,30.26,NNE,13,0.0,0.0,74,0.00,,,0.00,0,Wunderground v.1.15,2013-05-05 03:25:00,
2013-05-04 23:31:00,49.1,41.2,30.26,North,360,0.0,0.0,74,0.00,,,0.00,0,Wunderground v.1.15,2013-05-05 03:31:00,
2013-05-04 23:37:00,49.1,41.2,30.26,NNE,13,0.0,0.0,74,0.00,,,0.00,0,Wunderground v.1.15,2013-05-05 03:37:00,
2013-05-04 23:44:00,48.8,40.9,30.26,North,360,0.0,2.0,74,0.00,,,0.00,0,Wunderground v.1.15,2013-05-05 03:44:00,
2013-05-04 23:51:00,48.6,40.7,30.27,North,360,1.0,1.0,74,0.00,,,0.00,0,Wunderground v.1.15,2013-05-05 03:51:00,
2013-05-04 23:57:00,48.6,40.7,30.27,NNE,13,1.0,2.0,74,0.00,,,0.00,0,Wunderground v.1.15,2013-05-05 03:57:00,